Onion Creek, California Weather observations

Data are for observation ending at time listed.
 Day   Time    Ave.   Ave.  Ave.  Vector   Max.   Stn.    Total    Solar   Ave.   Snow 
  of    of     Air    Rel.  Wind   Wind    Wind   Baro.  Precip.   Rad.    Soil   Depth
Year   Day     Temp.  Hum.  Speed  Dir.    Gust   Pres.                    Temp.       
2014   (PST)    F      %     mph   deg.    mph     mb.     in.     W/m2     F      in. 
---------------------------------------------------------------------------------------  
 302    7:40   41.2    88    1.5    38      2.4   836.6   16.44      66    39.8   999.0
 302    7:50   42.1    86    0.8    44      1.6   836.7   16.44      94    39.8   999.0
 302    8:00   43.1    84    1.5    42      2.4   836.8   16.44      99    39.8   999.0
 302    8:10   43.9    83    1.1    52      2.1   836.9   16.44      87    39.8   999.0
 302    8:20   44.5    83    1.6    45      2.2   837.0   16.42      76    39.9   999.0
 302    8:30   45.2    81    1.6    67      2.3   837.1   16.44      83    39.9   999.0
 302    8:40   45.9    78    1.2    69      2.0   837.2   16.44     104    40.0   999.0
 302    8:50   46.6    76    1.4    66      1.9   837.1   16.44     331    40.1   999.0
 302    9:00   47.7    72    1.6    66      2.1   837.1   16.44     323    40.2   999.0
 302    9:10   49.2    71    1.4    64      2.0   837.0   16.44     530    40.2   999.0
 302    9:20   50.1    70    1.3    71      1.9   837.1   16.44     371    40.3   999.0
 302    9:30   50.8    70    1.0    78      1.7   837.2   16.42     545    40.4   999.0
 302    9:40   52.3    66    0.4    79      1.4   837.2   16.42     598    40.6   999.0
 302    9:50   53.6    63    0.0     0      0.0   837.1   16.44     597    40.7   999.0
 302   10:00   54.9    60    0.1   100      1.0   837.1   16.42     620    40.9   999.0
 302   10:10   57.0    55    0.3   136      2.3   837.1   16.44     601    41.2   999.0
 302   10:20   57.7    52    0.4   166      2.3   837.1   16.44     616    41.5   999.0
 302   10:30   59.6    43    0.8   102      3.1   837.1   16.44     508    41.9   999.0
 302   10:40   59.4    45    0.6   194      2.0   837.0   16.44     599    42.2   999.0
 302   10:50   62.0    33    0.5   218      1.9   836.9   16.44     623    42.6   999.0
 302   11:00   63.4    34    0.4    48      1.8   836.9   16.42     671    43.0   999.0
 302   11:10   63.9    30    1.3   220      3.1   836.7   16.42     708    43.4   999.0
 302   11:20   63.8    28    1.2   253      3.3   836.6   16.42     565    43.8   999.0
 302   11:30   63.5    33    1.7   250      4.5   836.5   16.42     520    44.2   999.0
 302   11:40   63.9    33    0.9   136      2.3   836.4   16.42     645    44.7   999.0
 302   11:50   63.3    38    1.3   233      4.2   836.4   16.42     319    45.1   999.0
 302   12:00   63.6    38    1.7   259      5.5   836.3   16.42     702    45.5   999.0
 302   12:10   64.1    39    1.6   205      5.1   836.1   16.42     707    45.9   999.0
 302   12:20   63.8    38    2.5   224      6.9   836.0   16.42     485    46.3   999.0
 302   12:30   64.1    38    1.8   174      5.4   835.9   16.42     657    46.6   999.0
 302   12:40   64.5    36    2.4   267      6.0   835.7   16.42     638    46.9   999.0
 302   12:50   64.5    36    1.8   257      7.0   835.7   16.42     665    47.2   999.0
 302   13:00   64.6    38    2.5   167      6.6   835.6   16.42     623    47.5   999.0
 302   13:10   65.0    38    2.9   270      7.2   835.5   16.39     634    47.8   999.0
 302   13:20   64.9    38    2.9   261      7.9   835.4   16.39     634    48.1   999.0
 302   13:30   64.8    38    2.4   243      6.9   835.3   16.39     600    48.4   999.0
 302   13:40   64.8    40    2.0   238      8.0   835.2   16.42     589    48.7   999.0
 302   13:50   64.9    39    2.9   260      6.2   835.1   16.39     567    49.0   999.0
 302   14:00   65.0    38    2.4   267      5.8   835.0   16.39     543    49.2   999.0
 302   14:10   64.7    39    2.3   265      7.9   835.0   16.39     519    49.4   999.0
 302   14:20   65.1    40    2.6   241      8.8   835.0   16.39     493    49.5   999.0
 302   14:30   65.3    39    2.5   242      8.3   835.0   16.42     468    49.7   999.0
 302   14:40   65.3    39    3.2   247      8.6   835.0   16.39     441    49.7   999.0
 302   14:50   65.6    39    2.2   254      6.5   835.1   16.39     413    49.7   999.0
 302   15:00   65.5    39    2.3   248      6.0   835.1   16.39     384    49.7   999.0
 302   15:10   65.4    38    3.5   256      8.3   835.1   16.39     355    49.7   999.0
 302   15:20   64.7    41    2.2   258      7.5   835.1   16.39     324    49.7   999.0
 302   15:30   63.7    42    2.5   253      6.1   835.1   16.39     215    49.7   999.0
 302   15:40   62.2    46    1.6   235      5.4   835.0   16.39      59    49.7   999.0
 302   15:50   61.5    46    2.1   228      6.8   834.9   16.39      71    49.7   999.0
 302   16:00   61.2    47    1.4   196      5.7   834.9   16.39     157    49.6   999.0
 302   16:10   60.7    48    1.4   215      5.6   834.8   16.39     167    49.6   999.0
 302   16:20   60.8    48    1.1   194      3.8   834.9   16.39     133    49.5   999.0
 302   16:30   60.4    50    0.5   170      1.8   834.8   16.39      93    49.5   999.0
 302   16:40   59.5    55    0.0   255      1.1   834.8   16.39      41    49.5   999.0
 302   16:50   56.1    67    0.5    20      1.8   834.8   16.39       8    49.4   999.0
 302   17:00   53.6    74    1.1    36      1.6   834.8   16.42       5    49.4   999.0
 302   17:10   52.2    77    1.0    30      1.7   834.9   16.39       3    49.3   999.0
 302   17:20   51.2    78    1.2    33      2.0   834.9   16.42       1    49.2   999.0
 302   17:30   50.5    79    1.1    31      2.2   834.9   16.39       0    49.1   999.0
 302   17:40   49.8    80    1.5    35      2.1   834.9   16.39       0    49.0   999.0
 302   17:50   49.1    80    1.5    32      2.3   834.8   16.42       0    48.8   999.0
 302   18:00   48.8    80    1.5    38      2.6   834.9   16.39       0    48.7   999.0
 302   18:10   48.5    81    1.6    50      2.3   834.9   16.42       0    48.6   999.0
 302   18:20   47.6    82    1.5    36      2.2   835.0   16.39       0    48.5   999.0
 302   18:30   47.2    82    1.4    42      2.1   835.0   16.39       0    48.4   999.0
 302   18:40   46.8    83    1.5    39      2.4   835.0   16.42       0    48.2   999.0
 302   18:50   46.5    84    1.9    38      2.6   835.0   16.42       0    48.1   999.0
 302   19:00   46.3    84    1.9    36      2.5   835.0   16.42       0    47.9   999.0
 302   19:10   46.2    85    1.9    43      2.7   834.9   16.42       0    47.8   999.0
 302   19:20   46.2    85    1.2    54      2.3   834.9   16.42       0    47.7   999.0
 302   19:30   46.1    85    1.8    45      2.8   834.9   16.42       0    47.5   999.0
 302   19:40   46.1    85    2.4    53      3.4   834.9   16.42       0    47.4   999.0
 302   19:50   45.9    85    1.6    44      2.7   834.9   16.39       0    47.3   999.0
 302   20:00   45.2    82    1.5    41      2.4   835.0   16.39       0    47.2   999.0
 302   20:10   45.1    77    1.9    46      3.1   835.0   16.42       0    47.0   999.0
 302   20:20   45.2    72    1.9    47      3.1   835.1   16.42       0    46.9   999.0
 302   20:30   44.8    70    1.9    46      2.9   835.1   16.39       0    46.8   999.0
 302   20:40   44.1    72    1.8    48      2.9   835.1   16.42       0    46.6   999.0
 302   20:50   43.5    74    2.0    40      2.6   835.1   16.42       0    46.5   999.0
 302   21:00   42.9    74    1.9    43      2.8   835.1   16.42       0    46.4   999.0
 302   21:10   42.7    72    2.0    42      3.1   835.1   16.42       0    46.3   999.0
 302   21:20   42.7    70    2.4    33      3.5   835.2   16.42       0    46.1   999.0
 302   21:30   42.8    68    2.8    40      3.5   835.2   16.42       0    46.0   999.0
 302   21:40   43.1    66    2.6    43      3.7   835.2   16.42       0    45.8   999.0
 302   21:50   43.2    65    1.6    50      3.4   835.2   16.39       0    45.7   999.0
 302   22:00   43.3    66    2.7    42      3.5   835.2   16.39       0    45.6   999.0
 302   22:10   43.0    69    2.8    35      3.5   835.2   16.39       0    45.5   999.0
 302   22:20   43.2    66    2.2    46      3.7   835.1   16.42       0    45.3   999.0
 302   22:30   43.5    63    2.5    42      3.1   835.1   16.42       0    45.2   999.0
 302   22:40   43.4    64    1.5    49      2.7   835.0   16.42       0    45.1   999.0
 302   22:50   42.9    65    1.7    50      3.2   835.0   16.42       0    45.0   999.0
 302   23:00   43.0    62    2.2    31      3.0   835.0   16.39       0    44.9   999.0
 302   23:10   43.1    63    2.3    28      3.1   834.9   16.39       0    44.8   999.0
 302   23:20   42.7    66    1.8    24      2.9   834.8   16.42       0    44.7   999.0
 302   23:30   42.3    67    2.3    37      3.2   834.7   16.39       0    44.5   999.0
 302   23:40   42.2    66    2.0    48      3.3   834.6   16.42       0    44.4   999.0
 302   23:50   42.5    63    2.1    37      3.2   834.5   16.42       0    44.3   999.0
 303    0:00   42.2    64    1.6    26      2.9   834.4   16.42       0    44.2   999.0
 303    0:10   42.0    67    2.6    36      3.2   834.4   16.39       0    44.1   999.0
 303    0:20   41.8    69    1.4    26      2.7   834.4   16.39       0    44.0   999.0
 303    0:30   41.2    71    1.8    34      3.2   834.3   16.42       0    43.9   999.0
 303    0:40   41.7    70    2.7    39      4.0   834.3   16.42       0    43.8   999.0
 303    0:50   42.0    70    2.4    41      3.4   834.2   16.39       0    43.7   999.0
 303    1:00   41.8    70    2.0    30      3.5   834.2   16.39       0    43.6   999.0
 303    1:10   41.7    70    2.0    27      3.3   834.1   16.42       0    43.5   999.0
 303    1:20   41.5    71    2.1    42      3.9   834.1   16.42       0    43.4   999.0
 303    1:30   41.8    70    2.3    45      3.7   834.1   16.39       0    43.3   999.0
 303    1:40   41.7    69    2.3    36      4.3   834.0   16.39       0    43.2   999.0
 303    1:50   41.8    68    2.0    37      3.6   834.0   16.39       0    43.1   999.0
 303    2:00   41.5    68    2.4    41      3.4   833.9   16.42       0    43.0   999.0
 303    2:10   41.5    64    1.5    24      2.9   833.8   16.42       0    42.9   999.0
 303    2:20   41.3    66    2.6    30      3.9   833.8   16.42       0    42.9   999.0
 303    2:30   41.6    64    2.5    29      3.5   833.7   16.39       0    42.8   999.0
 303    2:40   41.8    60    2.8    42      3.9   833.6   16.42       0    42.7   999.0
 303    2:50   41.7    63    2.8    42      3.6   833.5   16.42       0    42.6   999.0
 303    3:00   41.3    64    2.5    31      3.4   833.5   16.39       0    42.5   999.0
 303    3:10   41.2    66    2.8    42      3.5   833.4   16.39       0    42.4   999.0
 303    3:20   41.2    66    3.1    37      3.7   833.3   16.42       0    42.3   999.0
 303    3:30   41.1    68    2.7    34      3.4   833.2   16.42       0    42.3   999.0
 303    3:40   40.8    69    2.9    32      3.7   833.1   16.42       0    42.2   999.0
 303    3:50   40.8    69    2.6    29      4.1   833.0   16.42       0    42.1   999.0
 303    4:00   41.3    68    1.9    49      3.9   833.0   16.39       0    42.0   999.0
 303    4:10   41.5    68    2.9    41      3.9   832.9   16.42       0    41.9   999.0
 303    4:20   42.2    68    3.2    36      4.6   832.8   16.42       0    41.9   999.0
 303    4:30   42.1    69    2.5    40      3.7   832.7   16.42       0    41.8   999.0
 303    4:40   41.6    72    1.9    24      2.8   832.7   16.39       0    41.7   999.0
 303    4:50   40.9    75    1.9    37      2.9   832.8   16.39       0    41.7   999.0
 303    5:00   40.5    76    2.1    36      3.1   832.8   16.39       0    41.6   999.0
 303    5:10   40.8    75    2.1    27      3.0   832.7   16.42       0    41.5   999.0
 303    5:20   40.8    75    2.4    31      3.2   832.7   16.42       0    41.5   999.0
 303    5:30   40.7    75    1.7    34      3.0   832.8   16.42       0    41.4   999.0
 303    5:40   40.6    75    2.1    27      3.3   832.7   16.42       0    41.4   999.0
 303    5:50   40.6    74    2.2    31      3.7   832.6   16.42       0    41.3   999.0
 303    6:00   41.0    72    2.6    35      3.6   832.6   16.44       0    41.2   999.0
 303    6:10   40.9    72    2.4    28      3.5   832.6   16.42       0    41.2   999.0
 303    6:20   40.8    72    2.9    37      4.0   832.6   16.44       2    41.1   999.0
 303    6:30   41.0    70    2.8    42      4.2   832.7   16.44       4    41.1   999.0
 303    6:40   41.4    69    2.3    33      3.5   832.7   16.42       3    41.0   999.0
 303    6:50   41.2    70    2.4    36      3.9   832.7   16.42       7    40.9   999.0
 303    7:00   41.6    70    2.1    33      3.6   832.8   16.44      13    40.9   999.0
 303    7:10   41.8    70    2.3    41      3.4   832.8   16.44      25    40.8   999.0
 303    7:20   42.3    70    1.7    31      2.9   832.9   16.44      35    40.8   999.0
 303    7:30   42.2    72    2.0    25      3.7   833.0   16.44      33    40.8   999.0

Return to Onion Creek graphs page.


Western Regional Climate Center,wrcc@dri.edu